Time;durP1;ratioP1;P1;durP2;ratioP2;P2;SDS_P1;SDS_P2;PMS_P1;PMS_P2;Temp;Humidity;BMP_temperature;BMP_pressure;BME280_temperature;BME280_humidity;BME280_pressure;Samples;Min_cycle;Max_cycle;Signal;HPM_P1;HPM_P2
2022/11/28 00:01:50;;;;;;;26.48;12.23;;;;;;;6.71;100.00;99985.38;5027698;28;20393;-72
2022/11/28 00:04:15;;;;;;;21.17;11.48;;;;;;;6.81;100.00;100007.22;5029079;28;20104;-66
2022/11/28 00:06:45;;;;;;;21.30;11.13;;;;;;;6.83;100.00;100001.03;5026219;28;20500;-72
2022/11/28 00:09:12;;;;;;;22.50;10.88;;;;;;;6.82;100.00;99993.97;5024241;28;20025;-71
2022/11/28 00:11:39;;;;;;;21.63;11.65;;;;;;;6.83;100.00;99990.44;5016748;28;20501;-70
2022/11/28 00:14:05;;;;;;;22.10;11.93;;;;;;;6.83;100.00;99994.84;5019992;28;20033;-71
2022/11/28 00:16:31;;;;;;;23.10;12.43;;;;;;;6.83;100.00;99982.53;5028844;28;20465;-71
2022/11/28 00:18:58;;;;;;;25.08;11.80;;;;;;;6.85;100.00;99980.72;5010822;28;20052;-71
2022/11/28 00:21:24;;;;;;;24.10;12.32;;;;;;;6.88;100.00;99982.44;5010959;28;20033;-71
2022/11/28 00:23:50;;;;;;;19.35;10.63;;;;;;;6.76;100.00;99946.50;5016292;28;20396;-71
2022/11/28 00:26:22;;;;;;;22.00;11.30;;;;;;;6.86;100.00;99963.94;5030239;28;20021;-71
2022/11/28 00:28:47;;;;;;;21.77;10.93;;;;;;;6.91;100.00;99964.75;5018743;28;20037;-71
2022/11/28 00:31:16;;;;;;;22.35;11.20;;;;;;;6.95;100.00;99963.81;5009685;28;20034;-71
2022/11/28 00:33:41;;;;;;;22.38;11.77;;;;;;;6.95;100.00;99961.16;5028064;28;20033;-71
2022/11/28 00:36:07;;;;;;;19.60;11.75;;;;;;;6.97;100.00;99958.47;5032681;28;20037;-71
2022/11/28 00:38:33;;;;;;;24.40;11.45;;;;;;;6.97;100.00;99967.25;5009645;28;20079;-71
2022/11/28 00:41:23;;;;;;;16.73;9.52;;;;;;;6.93;100.00;99968.22;5007106;28;20470;-71
2022/11/28 00:43:49;;;;;;;23.05;11.82;;;;;;;6.88;100.00;99977.13;5012212;28;20030;-71
2022/11/28 00:46:17;;;;;;;21.17;10.25;;;;;;;6.86;100.00;99971.00;5009917;28;20034;-71
2022/11/28 00:48:42;;;;;;;23.77;11.38;;;;;;;6.80;100.00;99969.38;5009012;28;20034;-71
2022/11/28 00:51:23;;;;;;;21.52;10.75;;;;;;;6.92;100.00;99969.13;5025879;28;20029;-71
2022/11/28 00:53:51;;;;;;;22.60;10.52;;;;;;;6.93;100.00;99970.88;5008669;28;20105;-71
2022/11/28 00:56:19;;;;;;;25.83;12.30;;;;;;;6.94;100.00;99959.38;5010144;28;20026;-71
2022/11/28 00:58:46;;;;;;;20.88;10.85;;;;;;;6.86;100.00;99953.38;5022763;28;20037;-71
2022/11/28 01:01:18;;;;;;;22.73;11.55;;;;;;;6.91;100.00;99970.03;5009427;28;20077;-71
2022/11/28 01:03:44;;;;;;;18.67;10.48;;;;;;;6.93;100.00;99957.66;5017889;28;20068;-71
2022/11/28 01:06:10;;;;;;;20.40;10.85;;;;;;;6.94;100.00;99962.03;5016308;28;20026;-71
2022/11/28 01:08:36;;;;;;;20.50;11.32;;;;;;;6.96;100.00;99956.72;5045510;28;20550;-71
2022/11/28 01:11:03;;;;;;;24.10;11.50;;;;;;;6.99;100.00;99960.19;5015523;28;20037;-71
2022/11/28 01:13:28;;;;;;;21.88;12.43;;;;;;;6.96;100.00;99952.31;5021848;28;20025;-71
2022/11/28 01:15:54;;;;;;;22.73;11.93;;;;;;;6.98;100.00;99957.56;5010331;28;20049;-71
2022/11/28 01:18:19;;;;;;;22.80;12.30;;;;;;;7.02;100.00;99957.47;5011517;28;20083;-71
2022/11/28 01:20:45;;;;;;;26.70;11.52;;;;;;;7.04;100.00;99945.09;5011650;28;20544;-70
2022/11/28 01:23:10;;;;;;;22.23;11.85;;;;;;;7.02;100.00;99944.25;5019228;28;20041;-71
2022/11/28 01:25:36;;;;;;;24.60;12.25;;;;;;;7.07;100.00;99937.09;5019372;28;20040;-71
2022/11/28 01:28:01;;;;;;;35.83;12.75;;;;;;;7.08;100.00;99933.56;5009823;28;20394;-71
2022/11/28 01:30:26;;;;;;;27.67;13.13;;;;;;;6.98;100.00;99909.97;5012534;28;20478;-71
2022/11/28 01:32:52;;;;;;;25.40;12.65;;;;;;;7.09;100.00;99927.38;5031516;28;20116;-71
2022/11/28 01:35:17;;;;;;;33.17;14.52;;;;;;;7.09;100.00;99927.38;5031417;28;20021;-71
2022/11/28 01:37:43;;;;;;;30.63;13.73;;;;;;;7.09;100.00;99927.38;5030024;28;20137;-71
2022/11/28 01:40:11;;;;;;;29.25;13.52;;;;;;;7.11;100.00;99922.94;5031149;28;20057;-71
2022/11/28 01:42:36;;;;;;;26.52;13.63;;;;;;;7.07;100.00;99913.28;5035235;28;20097;-71
2022/11/28 01:45:30;;;;;;;25.17;13.40;;;;;;;7.07;100.00;99907.16;5035274;28;20132;-71
2022/11/28 01:47:59;;;;;;;28.52;13.85;;;;;;;7.09;100.00;99906.22;5034657;28;20044;-71
2022/11/28 01:50:26;;;;;;;26.95;14.05;;;;;;;7.03;100.00;99919.56;5033665;28;20041;-71
2022/11/28 01:52:56;;;;;;;28.35;13.68;;;;;;;6.90;100.00;99904.84;5035129;28;20033;-71
2022/11/28 01:55:25;;;;;;;26.35;12.52;;;;;;;6.93;100.00;99917.13;5035014;28;20104;-71
2022/11/28 01:57:53;;;;;;;24.45;13.02;;;;;;;6.79;100.00;99890.94;5033817;28;20030;-71
2022/11/28 02:00:37;;;;;;;26.00;13.27;;;;;;;6.87;100.00;99912.81;4858716;28;20034;-71
2022/11/28 02:03:10;;;;;;;31.80;15.20;;;;;;;6.84;100.00;99912.88;5011038;28;20063;-70
2022/11/28 02:05:36;;;;;;;26.42;11.93;;;;;;;6.83;100.00;99916.44;5014426;28;20582;-70
2022/11/28 02:08:02;;;;;;;26.45;12.63;;;;;;;6.83;100.00;99905.84;5015120;28;20073;-70
2022/11/28 02:11:15;;;;;;;25.42;13.30;;;;;;;6.79;100.00;99893.59;5015202;28;20041;-70
2022/11/28 02:14:02;;;;;;;26.38;13.48;;;;;;;6.79;100.00;99883.00;5013197;28;20045;-70
2022/11/28 02:17:04;;;;;;;24.90;13.55;;;;;;;6.78;100.00;99876.00;5014862;28;20112;-70
2022/11/28 02:19:52;;;;;;;26.65;13.57;;;;;;;6.74;100.00;99868.16;5014682;28;20034;-70
2022/11/28 02:22:22;;;;;;;25.00;12.80;;;;;;;6.69;100.00;99860.31;5014706;28;20060;-70
2022/11/28 02:25:07;;;;;;;29.33;12.90;;;;;;;6.66;100.00;99860.38;5014993;28;20030;-70
2022/11/28 02:27:50;;;;;;;24.85;13.00;;;;;;;6.66;100.00;99860.38;5029619;28;20030;-70
2022/11/28 02:30:33;;;;;;;30.75;13.52;;;;;;;6.65;100.00;99853.34;5014576;28;20084;-70
2022/11/28 02:33:13;;;;;;;24.52;11.95;;;;;;;6.63;100.00;99850.75;5014253;28;20021;-70
2022/11/28 02:35:47;;;;;;;21.08;12.23;;;;;;;6.59;100.00;99843.75;5014550;28;20022;-71
2022/11/28 02:38:42;;;;;;;25.30;12.68;;;;;;;6.55;100.00;99842.09;5014589;28;20362;-70
2022/11/28 02:41:33;;;;;;;32.25;12.73;;;;;;;6.52;100.00;99830.72;5010010;28;20100;-70
2022/11/28 02:44:05;;;;;;;27.33;12.82;;;;;;;6.49;100.00;99836.91;4996576;28;20042;-70
2022/11/28 02:46:56;;;;;;;22.70;11.82;;;;;;;6.49;100.00;99851.91;4994432;28;20053;-71
2022/11/28 02:49:25;;;;;;;22.63;11.68;;;;;;;6.49;100.00;99867.78;4993022;28;20026;-70
2022/11/28 02:51:59;;;;;;;26.85;12.02;;;;;;;6.49;100.00;99862.47;4994738;28;20394;-71
2022/11/28 02:54:26;;;;;;;29.25;12.30;;;;;;;6.48;100.00;99858.09;4994494;28;20041;-71
2022/11/28 02:56:53;;;;;;;22.00;11.00;;;;;;;6.46;100.00;99849.31;4992882;28;20026;-70
2022/11/28 02:59:28;;;;;;;24.15;11.52;;;;;;;6.44;100.00;99869.63;4994484;28;20160;-70
2022/11/28 03:01:53;;;;;;;23.35;11.48;;;;;;;6.33;100.00;99856.59;5004581;28;20050;-70
2022/11/28 03:05:04;;;;;;;20.35;10.95;;;;;;;6.43;100.00;99866.09;5026693;28;20060;-70
2022/11/28 03:08:00;;;;;;;21.02;11.82;;;;;;;6.45;100.00;99851.09;5033337;28;20049;-70
2022/11/28 03:10:38;;;;;;;22.35;11.90;;;;;;;6.47;100.00;99853.72;5033579;28;20453;-70
2022/11/28 03:13:25;;;;;;;19.08;10.73;;;;;;;6.44;100.00;99853.78;5033166;28;20025;-70
2022/11/28 03:16:00;;;;;;;22.00;11.88;;;;;;;6.44;100.00;99848.50;5033357;28;20512;-70
2022/11/28 03:18:33;;;;;;;21.00;11.80;;;;;;;6.34;100.00;99846.91;5033186;28;20489;-70
2022/11/28 03:21:10;;;;;;;20.20;10.90;;;;;;;6.36;100.00;99850.38;5016135;28;20058;-70
2022/11/28 03:23:48;;;;;;;20.67;11.80;;;;;;;6.35;100.00;99853.94;5013460;28;20072;-70
2022/11/28 03:26:33;;;;;;;19.60;10.70;;;;;;;6.30;100.00;99835.53;5013418;28;20029;-70
2022/11/28 03:29:22;;;;;;;20.52;11.88;;;;;;;6.30;100.00;99846.09;5013213;28;20033;-70
2022/11/28 03:31:56;;;;;;;23.40;11.50;;;;;;;6.29;100.00;99843.47;5032212;28;20038;-70
2022/11/28 03:34:25;;;;;;;22.58;10.98;;;;;;;6.27;100.00;99845.28;5032800;28;20032;-70
2022/11/28 03:37:04;;;;;;;20.88;11.32;;;;;;;6.28;100.00;99844.34;5033010;28;20031;-70
2022/11/28 03:39:36;;;;;;;18.63;10.43;;;;;;;6.35;100.00;99853.94;5032797;28;20025;-70
2022/11/28 03:42:08;;;;;;;23.80;12.80;;;;;;;6.39;100.00;99852.97;5032161;28;20022;-70
2022/11/28 03:44:41;;;;;;;24.35;10.90;;;;;;;6.38;100.00;99853.88;5032030;28;20033;-70
2022/11/28 03:47:07;;;;;;;20.38;10.77;;;;;;;6.31;100.00;99844.34;5031382;28;20049;-70
2022/11/28 03:49:38;;;;;;;32.00;12.25;;;;;;;6.36;100.00;99850.38;5047207;28;20103;-70
2022/11/28 03:52:06;;;;;;;29.65;13.15;;;;;;;6.40;100.00;99857.34;5031732;28;20029;-70
2022/11/28 03:54:40;;;;;;;27.00;12.80;;;;;;;6.43;100.00;99846.72;5031892;28;20032;-70
2022/11/28 03:57:14;;;;;;;27.88;12.07;;;;;;;6.44;100.00;99861.69;5031645;28;20029;-70
2022/11/28 03:59:47;;;;;;;;;;;;;;;6.47;100.00;99856.34;5032866;28;20025;-71
2022/11/28 04:02:23;;;;;;;26.40;12.20;;;;;;;6.48;100.00;99851.03;5032193;28;20005;-69
2022/11/28 04:05:15;;;;;;;29.55;12.68;;;;;;;6.49;100.00;99857.19;5032404;28;20030;-70
2022/11/28 04:08:14;;;;;;;22.00;12.13;;;;;;;6.47;100.00;99848.44;5028945;28;20053;-69
2022/11/28 04:10:45;;;;;;;24.38;11.68;;;;;;;6.47;100.00;99844.00;5032388;28;20432;-69
2022/11/28 04:13:18;;;;;;;21.90;12.02;;;;;;;6.47;100.00;99837.84;5032385;28;20440;-69
2022/11/28 04:15:54;;;;;;;18.27;10.63;;;;;;;6.41;100.00;99828.25;5032057;28;20029;-69
2022/11/28 04:18:28;;;;;;;22.98;11.65;;;;;;;6.46;100.00;99836.97;5030573;28;20029;-70
2022/11/28 04:21:02;;;;;;;;;;;;;;;6.48;100.00;99834.31;5031130;28;20107;-70
2022/11/28 04:23:30;;;;;;;23.20;11.23;;;;;;;6.47;100.00;99840.50;5031640;28;19948;-70
2022/11/28 04:26:02;;;;;;;19.55;9.80;;;;;;;6.44;100.00;99837.91;5030560;28;20509;-70
2022/11/28 04:28:30;;;;;;;21.83;11.48;;;;;;;6.41;100.00;99837.94;5032061;28;20373;-70
2022/11/28 04:30:57;;;;;;;22.13;11.27;;;;;;;6.34;100.00;99829.28;5015284;28;20121;-70
2022/11/28 04:33:26;;;;;;;19.75;11.93;;;;;;;6.37;100.00;99841.56;5011759;28;20026;-70
2022/11/28 04:35:54;;;;;;;21.90;10.98;;;;;;;6.34;100.00;99828.44;5011110;28;20030;-71
2022/11/28 04:38:23;;;;;;;23.80;10.93;;;;;;;6.32;100.00;99827.56;5012297;28;20026;-71
2022/11/28 04:40:53;;;;;;;26.50;12.13;;;;;;;6.25;100.00;99821.53;5025459;28;20370;-70
2022/11/28 04:43:33;;;;;;;22.38;11.40;;;;;;;6.31;100.00;99829.34;5029067;28;20061;-70
2022/11/28 04:46:13;;;;;;;19.63;10.43;;;;;;;6.28;100.00;99836.44;5012058;28;20045;-70
2022/11/28 04:48:39;;;;;;;19.48;10.63;;;;;;;6.22;100.00;99828.63;5011846;28;20104;-70
2022/11/28 04:51:21;;;;;;;19.48;10.13;;;;;;;6.18;100.00;99830.47;5011771;28;20038;-70
2022/11/28 04:54:05;;;;;;;32.50;9.93;;;;;;;6.14;100.00;99820.00;5011904;28;20033;-70
2022/11/28 04:56:40;;;;;;;31.20;11.00;;;;;;;6.19;100.00;99823.41;5011843;28;20064;-70
2022/11/28 04:59:06;;;;;;;21.38;10.15;;;;;;;6.11;100.00;99798.94;5011222;28;20030;-71
2022/11/28 05:01:33;;;;;;;20.73;10.05;;;;;;;6.16;100.00;99805.84;5010880;28;20061;-71
2022/11/28 05:03:59;;;;;;;18.98;11.32;;;;;;;6.11;100.00;99786.56;5022979;28;20055;-70
2022/11/28 05:06:31;;;;;;;20.00;11.38;;;;;;;6.14;100.00;99794.47;5030442;28;20048;-71
2022/11/28 05:08:56;;;;;;;21.65;11.55;;;;;;;6.17;100.00;99798.81;5030489;28;20374;-70
2022/11/28 05:11:23;;;;;;;18.85;11.27;;;;;;;6.03;100.00;99779.72;5024585;28;20025;-70
2022/11/28 05:13:48;;;;;;;23.27;11.52;;;;;;;6.09;100.00;99798.06;5022176;28;20037;-70
2022/11/28 05:16:14;;;;;;;27.67;12.38;;;;;;;6.10;100.00;99790.13;5019881;28;20041;-70
2022/11/28 05:18:40;;;;;;;24.30;12.55;;;;;;;6.11;100.00;99780.44;5030954;28;20086;-70
2022/11/28 05:21:07;;;;;;;20.63;10.88;;;;;;;6.10;100.00;99766.38;5031020;28;20108;-70
2022/11/28 05:23:35;;;;;;;20.83;10.63;;;;;;;6.13;100.00;99761.03;5031006;28;20033;-70
2022/11/28 05:26:05;;;;;;;22.58;11.73;;;;;;;6.17;100.00;99764.47;5027807;28;20033;-70
2022/11/28 05:28:30;;;;;;;18.23;10.18;;;;;;;6.21;100.00;99771.44;5011151;28;20025;-70
2022/11/28 05:31:00;;;;;;;18.27;10.40;;;;;;;6.30;100.00;99771.25;5043289;28;20444;-70
2022/11/28 05:33:28;;;;;;;22.40;11.27;;;;;;;6.25;100.00;99758.16;5030833;28;20033;-70
2022/11/28 05:35:53;;;;;;;22.70;11.07;;;;;;;6.37;100.00;99772.88;5031008;28;20037;-71
2022/11/28 05:38:18;;;;;;;18.40;11.05;;;;;;;6.26;100.00;99764.31;5030807;28;20013;-71
2022/11/28 05:40:44;;;;;;;17.40;9.95;;;;;;;6.26;100.00;99786.28;5031234;28;20025;-71
2022/11/28 05:43:10;;;;;;;18.90;10.48;;;;;;;6.21;100.00;99777.59;5030797;28;20029;-70
2022/11/28 05:45:42;;;;;;;18.13;9.38;;;;;;;6.15;100.00;99776.81;5026094;28;20033;-70
2022/11/28 05:48:08;;;;;;;25.83;9.20;;;;;;;6.11;100.00;99796.28;5013888;28;20096;-69
2022/11/28 05:50:33;;;;;;;16.35;9.48;;;;;;;5.96;100.00;99776.31;5011528;28;20037;-70
2022/11/28 05:52:59;;;;;;;18.63;10.48;;;;;;;6.00;100.00;99792.94;5020258;28;20034;-70
2022/11/28 05:55:25;;;;;;;19.60;9.75;;;;;;;5.91;100.00;99801.03;5034120;28;20540;-72
2022/11/28 05:57:50;;;;;;;17.85;10.00;;;;;;;5.84;100.00;99787.09;5014692;28;20424;-70
2022/11/28 06:00:16;;;;;;;17.83;9.50;;;;;;;5.95;100.00;99794.78;5019257;28;20108;-71
2022/11/28 06:02:42;;;;;;;19.77;10.23;;;;;;;5.95;100.00;99800.06;5010829;28;20050;-71
2022/11/28 06:05:07;;;;;;;19.60;9.80;;;;;;;5.97;100.00;99798.28;5030582;28;20079;-71
2022/11/28 06:07:33;;;;;;;15.32;9.15;;;;;;;5.96;100.00;99791.28;5030705;28;20380;-71
2022/11/28 06:09:58;;;;;;;18.10;9.48;;;;;;;5.92;100.00;99785.19;5030978;28;20029;-71
2022/11/28 06:12:24;;;;;;;31.58;10.18;;;;;;;6.00;100.00;99787.66;5029419;28;20040;-71
2022/11/28 06:14:49;;;;;;;17.42;10.25;;;;;;;5.99;100.00;99797.38;5030152;28;20029;-71
2022/11/28 06:17:14;;;;;;;17.75;10.10;;;;;;;5.97;100.00;99791.25;5029661;28;20109;-71
2022/11/28 06:19:40;;;;;;;19.08;9.98;;;;;;;5.95;100.00;99789.50;5028177;28;20037;-71
2022/11/28 06:22:05;;;;;;;41.75;11.93;;;;;;;5.97;100.00;99798.28;5028575;28;20083;-70
2022/11/28 06:24:31;;;;;;;16.45;10.00;;;;;;;5.93;100.00;99801.91;5029765;28;20032;-70
2022/11/28 06:26:56;;;;;;;18.25;10.15;;;;;;;5.87;100.00;99804.63;5030910;28;20120;-71
2022/11/28 06:29:22;;;;;;;16.45;11.02;;;;;;;5.88;100.00;99798.47;5029532;28;20032;-71
2022/11/28 06:31:47;;;;;;;18.42;11.88;;;;;;;5.89;100.00;99810.75;5013309;28;20026;-71
2022/11/28 06:34:12;;;;;;;19.65;10.32;;;;;;;5.89;100.00;99810.75;5014519;28;20028;-71
2022/11/28 06:36:38;;;;;;;16.00;9.65;;;;;;;5.96;100.00;99818.56;5014291;28;20032;-71
2022/11/28 06:39:04;;;;;;;20.55;12.20;;;;;;;5.85;100.00;99794.09;5014482;28;20030;-70
2022/11/28 06:41:30;;;;;;;20.55;11.52;;;;;;;6.00;100.00;99814.06;5015418;28;20038;-71
2022/11/28 06:43:56;;;;;;;27.80;12.50;;;;;;;6.01;100.00;99815.81;5022822;28;20056;-71
2022/11/28 06:46:22;;;;;;;25.05;13.60;;;;;;;6.04;100.00;99823.69;5014176;28;20030;-70
2022/11/28 06:48:49;;;;;;;19.65;11.52;;;;;;;6.06;100.00;99829.81;5014142;28;20022;-71
2022/11/28 06:51:15;;;;;;;20.48;11.68;;;;;;;6.01;100.00;99810.53;5014143;28;20501;-71
2022/11/28 06:53:41;;;;;;;23.27;13.77;;;;;;;6.01;100.00;99821.09;5013979;28;20036;-71
2022/11/28 06:56:10;;;;;;;20.95;11.50;;;;;;;6.03;100.00;99819.31;5013815;28;20033;-70
2022/11/28 06:58:35;;;;;;;19.38;12.52;;;;;;;5.96;100.00;99810.63;5013697;28;20045;-70
2022/11/28 07:01:07;;;;;;;20.02;12.55;;;;;;;6.07;100.00;99834.19;5031376;28;20652;-71
2022/11/28 07:03:32;;;;;;;23.42;13.05;;;;;;;6.06;100.00;99824.53;5032151;28;20056;-71
2022/11/28 07:06:00;;;;;;;21.73;12.15;;;;;;;6.04;100.00;99821.03;5032210;28;20033;-70
2022/11/28 07:08:26;;;;;;;23.65;11.48;;;;;;;6.01;100.00;99818.47;5032347;28;20033;-70
2022/11/28 07:10:51;;;;;;;19.33;10.93;;;;;;;5.72;100.00;99765.25;5031768;28;20481;-71
2022/11/28 07:13:17;;;;;;;16.42;11.05;;;;;;;6.05;100.00;99828.06;5012344;28;20029;-70
2022/11/28 07:15:50;;;;;;;21.45;11.68;;;;;;;6.04;100.00;99821.03;5011051;28;20034;-70
2022/11/28 07:18:15;;;;;;;22.52;11.57;;;;;;;5.97;100.00;99819.41;5023970;28;20069;-70
2022/11/28 07:20:41;;;;;;;22.67;12.15;;;;;;;6.04;100.00;99828.97;5013412;28;20115;-70
2022/11/28 07:23:06;;;;;;;20.90;11.38;;;;;;;6.05;100.00;99839.50;5013432;28;20030;-70
2022/11/28 07:25:32;;;;;;;20.23;10.05;;;;;;;6.08;100.00;99841.22;5013256;28;20030;-69
2022/11/28 07:27:59;;;;;;;16.08;10.10;;;;;;;6.10;100.00;99847.31;5019798;28;20039;-69
2022/11/28 07:30:25;;;;;;;15.07;10.18;;;;;;;6.08;100.00;99836.78;5040922;28;20116;-70
2022/11/28 07:32:50;;;;;;;21.35;11.55;;;;;;;6.17;100.00;99843.69;5031886;28;20421;-70
2022/11/28 07:35:16;;;;;;;17.63;10.90;;;;;;;6.20;100.00;99854.19;5029304;28;20025;-70
2022/11/28 07:37:41;;;;;;;17.85;10.68;;;;;;;6.25;100.00;99849.69;5032923;28;20025;-70
2022/11/28 07:40:07;;;;;;;19.95;12.35;;;;;;;6.30;100.00;99858.41;5030976;28;20021;-70
2022/11/28 07:42:33;;;;;;;22.77;13.68;;;;;;;6.32;100.00;99856.63;5032907;28;20492;-70
2022/11/28 07:44:58;;;;;;;19.33;13.73;;;;;;;6.36;100.00;99853.91;5032073;28;20028;-71
2022/11/28 07:47:24;;;;;;;21.40;12.52;;;;;;;6.37;100.00;99841.56;5032619;28;20024;-69
2022/11/28 07:49:49;;;;;;;19.23;12.13;;;;;;;6.46;100.00;99844.03;5032823;28;20060;-70
2022/11/28 07:52:14;;;;;;;22.15;13.60;;;;;;;6.59;100.00;99842.88;5017335;28;20043;-72
2022/11/28 07:54:40;;;;;;;21.02;12.68;;;;;;;6.57;100.00;99831.50;5012347;28;20030;-70
2022/11/28 07:57:05;;;;;;;23.90;12.98;;;;;;;6.67;100.00;99841.00;5012568;28;20033;-69
2022/11/28 07:59:31;;;;;;;21.52;13.05;;;;;;;6.72;100.00;99835.59;5014130;28;20037;-69
2022/11/28 08:01:57;;;;;;;21.95;13.00;;;;;;;6.76;100.00;99829.34;5023496;28;20050;-69
2022/11/28 08:04:22;;;;;;;22.88;13.65;;;;;;;6.86;100.00;99842.34;5019224;28;20035;-69
2022/11/28 08:06:47;;;;;;;21.15;12.25;;;;;;;6.90;100.00;99843.16;5017469;28;20052;-69
2022/11/28 08:09:13;;;;;;;21.73;13.40;;;;;;;6.92;100.00;99839.56;5018758;28;20059;-69
2022/11/28 08:11:39;;;;;;;21.30;12.38;;;;;;;6.95;100.00;99836.88;5019108;28;20540;-69
2022/11/28 08:14:05;;;;;;;23.80;12.93;;;;;;;7.01;100.00;99841.16;5012932;28;20029;-69
2022/11/28 08:16:31;;;;;;;20.52;13.30;;;;;;;7.01;100.00;99820.88;5016160;28;20021;-69
2022/11/28 08:18:59;;;;;;;20.77;13.25;;;;;;;7.13;100.00;99820.63;5011307;28;20033;-69
2022/11/28 08:21:30;;;;;;;20.08;13.13;;;;;;;7.22;100.00;99823.06;5019343;28;20104;-69
2022/11/28 08:23:59;;;;;;;21.55;12.93;;;;;;;7.07;100.00;99789.00;5028678;28;20033;-69
2022/11/28 08:26:26;;;;;;;22.35;12.70;;;;;;;7.31;100.00;99836.09;5013248;28;20032;-69
2022/11/28 08:28:53;;;;;;;26.08;13.23;;;;;;;7.37;100.00;99835.94;5021704;28;20036;-69
2022/11/28 08:31:30;;;;;;;27.13;14.02;;;;;;;7.43;100.00;99846.38;5028267;28;20025;-70
2022/11/28 08:33:58;;;;;;;24.75;13.80;;;;;;;7.47;100.00;99844.53;5012002;28;20116;-72
2022/11/28 08:36:23;;;;;;;23.90;13.80;;;;;;;7.49;100.00;99830.38;5015014;28;20022;-71
2022/11/28 08:38:49;;;;;;;26.40;14.40;;;;;;;7.57;100.00;99839.00;5015272;28;20842;-71
2022/11/28 08:41:20;;;;;;;25.63;15.60;;;;;;;7.61;100.00;99850.41;5021409;28;20064;-70
2022/11/28 08:43:47;;;;;;;23.75;14.02;;;;;;;7.66;100.00;99843.22;5038802;28;20084;-70
2022/11/28 08:46:15;;;;;;;26.25;14.35;;;;;;;7.72;100.00;99843.94;5009097;28;20053;-71
2022/11/28 08:48:41;;;;;;;20.52;12.40;;;;;;;7.78;100.00;99843.78;5012571;28;20117;-71
2022/11/28 08:51:12;;;;;;;21.33;13.02;;;;;;;7.80;100.00;99836.69;5018621;28;20139;-70
2022/11/28 08:53:37;;;;;;;22.90;13.25;;;;;;;7.82;100.00;99834.00;5013475;28;20587;-73
2022/11/28 08:56:03;;;;;;;19.08;12.20;;;;;;;7.78;100.00;99835.84;5016732;28;20029;-73
2022/11/28 08:58:28;;;;;;;18.45;11.20;;;;;;;7.77;100.00;99820.88;5017106;28;20034;-71
2022/11/28 09:00:54;;;;;;;22.38;16.15;;;;;;;7.98;100.00;99835.34;5026442;28;20374;-71
2022/11/28 09:03:20;;;;;;;23.13;13.70;;;;;;;8.07;100.00;99839.53;5015702;28;20076;-71
2022/11/28 09:05:46;;;;;;;20.92;12.48;;;;;;;8.14;100.00;99834.03;5009340;28;20836;-70
2022/11/28 09:08:16;;;;;;;19.80;12.50;;;;;;;8.12;100.00;99827.06;5015894;28;20037;-70
2022/11/28 09:10:44;;;;;;;22.75;12.38;;;;;;;8.29;100.00;99836.34;5014926;28;20389;-71
2022/11/28 09:13:12;;;;;;;21.02;13.10;;;;;;;8.38;100.00;99840.53;5019282;28;20041;-71
2022/11/28 09:15:43;;;;;;;16.70;10.65;;;;;;;8.42;100.00;99848.34;5022965;28;20112;-71
2022/11/28 09:18:08;;;;;;;19.92;12.07;;;;;;;8.50;100.00;99841.06;5020876;28;20374;-70
2022/11/28 09:20:34;;;;;;;20.08;13.10;;;;;;;8.60;100.00;99853.16;5023536;28;20044;-70
2022/11/28 09:23:00;;;;;;;20.20;12.90;;;;;;;8.66;100.00;99847.69;5017022;28;20072;-70
2022/11/28 09:25:26;;;;;;;22.23;12.20;;;;;;;8.80;100.00;99856.13;5020066;28;20045;-71
2022/11/28 09:27:51;;;;;;;30.92;14.27;;;;;;;8.90;100.00;99847.00;5009734;28;20378;-71
2022/11/28 09:30:17;;;;;;;23.48;14.35;;;;;;;8.99;100.00;99845.88;5017277;28;20025;-71
2022/11/28 09:32:46;;;;;;;22.33;13.27;;;;;;;9.07;100.00;99852.69;5026851;28;20335;-71
2022/11/28 09:35:11;;;;;;;24.67;14.93;;;;;;;9.12;100.00;99847.25;5020974;28;20091;-71
2022/11/28 09:37:37;;;;;;;20.25;13.43;;;;;;;9.20;100.00;99845.22;5017988;28;20852;-71
2022/11/28 09:40:03;;;;;;;23.48;12.57;;;;;;;9.17;100.00;99832.06;5026909;28;20037;-71
2022/11/28 09:42:40;;;;;;;26.35;14.50;;;;;;;9.33;100.00;99846.59;5021302;28;20602;-71
2022/11/28 09:45:13;;;;;;;22.05;13.30;;;;;;;9.43;100.00;99845.41;5023716;28;20021;-71
2022/11/28 09:47:42;;;;;;;21.17;13.85;;;;;;;9.45;100.00;99840.94;5025043;28;20042;-72
2022/11/28 09:50:19;;;;;;;19.10;12.32;;;;;;;9.49;100.00;99842.56;5013358;28;20880;-71
2022/11/28 09:52:55;;;;;;;24.30;17.00;;;;;;;9.47;100.00;99823.19;5010878;28;20045;-72
2022/11/28 09:55:39;;;;;;;26.70;15.20;;;;;;;9.60;100.00;99829.84;5021605;28;20382;-72
2022/11/28 09:58:13;;;;;;;24.48;13.77;;;;;;;9.65;100.00;99829.69;5015966;28;20561;-70
2022/11/28 10:00:44;;;;;;;;;;;;;;;9.69;100.00;99839.28;5022881;28;20037;-70
2022/11/28 10:03:27;;;;;;;21.73;11.40;;;;;;;9.70;100.00;99825.97;5017653;28;20320;-70
2022/11/28 10:05:58;;;;;;;20.38;11.38;;;;;;;9.77;100.00;99832.81;5020738;28;20643;-73
2022/11/28 10:08:39;;;;;;;27.85;18.88;;;;;;;9.70;100.00;99836.59;5018062;28;20666;-73
2022/11/28 10:11:18;;;;;;;18.83;11.55;;;;;;;9.58;100.00;99821.03;5024486;28;20021;-73
2022/11/28 10:13:58;;;;;;;40.53;27.38;;;;;;;9.67;100.00;99831.34;5033803;28;20131;-73
2022/11/28 10:16:49;;;;;;;18.50;12.32;;;;;;;9.70;100.00;99825.97;5023711;28;20516;-73
2022/11/28 10:19:18;;;;;;;20.38;11.93;;;;;;;9.76;100.00;99831.06;5015050;28;20536;-73
2022/11/28 10:21:49;;;;;;;22.27;10.88;;;;;;;9.78;100.00;99837.22;5022277;28;20033;-72
2022/11/28 10:24:19;;;;;;;17.27;9.30;;;;;;;9.78;100.00;99834.56;5016880;28;20044;-72
2022/11/28 10:26:53;;;;;;;15.18;10.32;;;;;;;9.80;100.00;99830.03;5016607;28;20042;-73
2022/11/28 10:29:28;;;;;;;15.35;10.43;;;;;;;9.88;100.00;99830.69;5020068;28;20117;-72
2022/11/28 10:31:56;;;;;;;17.17;10.65;;;;;;;9.85;100.00;99822.78;5022148;28;20512;-73
2022/11/28 10:34:35;;;;;;;16.75;10.65;;;;;;;9.96;100.00;99823.34;5014162;28;20024;-72
2022/11/28 10:37:03;;;;;;;24.27;13.50;;;;;;;9.90;100.00;99828.81;5025104;28;20065;-73
2022/11/28 10:39:29;;;;;;;17.83;10.38;;;;;;;9.76;100.00;99820.44;5013872;28;20485;-72
2022/11/28 10:42:13;;;;;;;17.50;9.15;;;;;;;9.85;100.00;99814.81;5014661;28;20109;-72
2022/11/28 10:44:47;;;;;;;15.18;8.73;;;;;;;9.92;100.00;99810.19;5018629;28;20523;-72
2022/11/28 10:47:50;;;;;;;11.40;7.88;;;;;;;9.99;100.00;99806.41;5017738;28;20080;-72
2022/11/28 10:50:58;;;;;;;13.95;8.23;;;;;;;10.10;100.00;99805.16;5022462;28;20026;-71
2022/11/28 10:53:26;;;;;;;14.75;8.43;;;;;;;10.09;100.00;99797.25;5021495;28;20716;-71
2022/11/28 10:56:08;;;;;;;12.00;7.88;;;;;;;10.09;100.00;99803.44;5032236;28;20335;-72
2022/11/28 10:58:59;;;;;;;16.08;9.68;;;;;;;10.07;100.00;99802.56;5023327;28;20064;-72
2022/11/28 11:01:36;;;;;;;16.35;9.75;;;;;;;10.13;100.00;99796.22;5027257;28;20104;-72
2022/11/28 11:04:03;;;;;;;14.45;8.05;;;;;;;10.16;100.00;99794.34;5019180;28;20037;-72
2022/11/28 11:06:28;;;;;;;16.02;8.95;;;;;;;10.21;100.00;99780.88;5020238;28;20074;-72
2022/11/28 11:08:53;;;;;;;18.60;9.07;;;;;;;10.35;100.00;99794.53;5020196;28;20034;-72
2022/11/28 11:11:29;;;;;;;16.55;9.63;;;;;;;10.46;100.00;99785.25;5020292;28;20026;-72
2022/11/28 11:14:07;;;;;;;18.98;10.27;;;;;;;10.43;100.00;99769.44;5016437;28;20033;-72
2022/11/28 11:16:54;;;;;;;15.55;8.70;;;;;;;10.55;100.00;99778.75;5038263;28;20021;-72
2022/11/28 11:19:26;;;;;;;12.27;7.45;;;;;;;10.57;100.00;99768.94;5015427;28;20025;-72
2022/11/28 11:22:08;;;;;;;21.10;10.95;;;;;;;10.62;100.00;99766.97;5019666;28;20135;-72
2022/11/28 11:24:33;;;;;;;15.73;9.63;;;;;;;10.74;100.00;99770.97;5018560;28;20112;-71
2022/11/28 11:27:05;;;;;;;16.08;8.70;;;;;;;10.85;100.00;99763.44;5036454;28;20117;-70
2022/11/28 11:29:34;;;;;;;14.05;8.43;;;;;;;11.03;100.00;99770.72;5022406;28;20033;-71
2022/11/28 11:32:04;;;;;;;13.77;7.85;;;;;;;11.18;100.00;99756.84;5016249;28;20026;-70
2022/11/28 11:34:36;;;;;;;11.85;7.70;;;;;;;11.11;99.09;99753.56;5016296;28;20022;-69
2022/11/28 11:37:27;;;;;;;14.18;7.70;;;;;;;11.32;98.72;99754.47;5013677;28;20108;-69